Hovedside
METAR-TAF:

METAR-TAF

Lufthavner :

Berlevåg lufthavn

Berlevåg, Norge

breddegrad: 70-52N, lengdegrad: 029-02E, høyde over havet: 1 m

Gjeldene værobservasjon

Denne rapporten ble laget for 6 timer og 56 minutter siden, klokken 11:50 UTC
Vind 25 kt fra Vest
Temperatur 8°C
Luftfuktighet 76%
Trykk 1021 hPa
Sikt 10 km eller mer
Brutte skyer i en høyde av 2000 ft

METAR: ENBV 191150Z 26025KT 9999 BKN020 08/04 Q1021

Tid: 19:46 (18:46 UTC)

Varsel

Denne rapporten ble laget for 4 timer og 46 minutter siden, klokken 14:00 UTC
Varsel gyldig fra 19. klokken 15 UTC til 19. klokken 22 UTC
Vind 30 kt fra Vest med vindkast opp mot 40 kt
Sikt 10 km eller mer
Brutte skyer i en høyde av 2000 ft
Midlertidig
fra 19. klokken 15 UTC til 19. klokken 22 UTC
Vind 20 kt fra Vest

TAF: ENBV 191400Z 1915/1922 26030G40KT 9999 BKN020 TEMPO 1915/1922 27020KT

Værobservasjoner og værvarsel for over 4000 flyplasser (METAR- og TAF-rapporter).

Tilgjengelige stasjoner er representert av de røde og gule prikkene på kartet.

Hold musepekeren over prikken for å se navnet på stasjonen.

Klikk så for å se værobservasjoner og -varsler.

For å forandre kartet kan du klikke på den grønne knappen med svart kryss for å zoome inn, på den grønne knappen med strek for å zoome ut, eller på de grønne pilene for å se tilstøtende kart.


METAR-TAF: